sensor_id;sensor_type;location;lat;lon;timestamp;temperature;humidity
15617;DHT22;7908;51.688;7.130;2023-06-10T00:00:22;19.30;99.90
15617;DHT22;7908;51.688;7.130;2023-06-10T00:02:53;19.30;99.90
15617;DHT22;7908;51.688;7.130;2023-06-10T00:05:23;19.30;99.90
15617;DHT22;7908;51.688;7.130;2023-06-10T00:07:52;19.40;99.90
15617;DHT22;7908;51.688;7.130;2023-06-10T00:10:23;19.40;99.90
15617;DHT22;7908;51.688;7.130;2023-06-10T00:12:53;19.40;99.90
15617;DHT22;7908;51.688;7.130;2023-06-10T00:15:22;19.50;99.90
15617;DHT22;7908;51.688;7.130;2023-06-10T00:17:53;19.60;99.90
15617;DHT22;7908;51.688;7.130;2023-06-10T00:20:22;19.60;99.90
15617;DHT22;7908;51.688;7.130;2023-06-10T00:22:53;19.70;99.90
15617;DHT22;7908;51.688;7.130;2023-06-10T00:25:24;19.70;99.90
15617;DHT22;7908;51.688;7.130;2023-06-10T00:27:53;19.70;99.90
15617;DHT22;7908;51.688;7.130;2023-06-10T00:30:23;19.60;99.90
15617;DHT22;7908;51.688;7.130;2023-06-10T00:32:54;19.60;99.90
15617;DHT22;7908;51.688;7.130;2023-06-10T00:35:23;19.60;99.90
15617;DHT22;7908;51.688;7.130;2023-06-10T00:37:52;19.50;99.90
15617;DHT22;7908;51.688;7.130;2023-06-10T00:40:21;19.50;99.90
15617;DHT22;7908;51.688;7.130;2023-06-10T00:42:50;19.50;99.90
15617;DHT22;7908;51.688;7.130;2023-06-10T00:45:20;19.40;99.90
15617;DHT22;7908;51.688;7.130;2023-06-10T00:47:49;19.40;99.90
15617;DHT22;7908;51.688;7.130;2023-06-10T00:50:20;19.30;99.90
15617;DHT22;7908;51.688;7.130;2023-06-10T00:52:49;19.20;99.90
15617;DHT22;7908;51.688;7.130;2023-06-10T00:55:22;19.20;99.90
15617;DHT22;7908;51.688;7.130;2023-06-10T00:57:52;19.20;99.90
15617;DHT22;7908;51.688;7.130;2023-06-10T01:00:21;19.10;99.90
15617;DHT22;7908;51.688;7.130;2023-06-10T01:02:50;19.10;99.90
15617;DHT22;7908;51.688;7.130;2023-06-10T01:05:22;19.10;99.90
15617;DHT22;7908;51.688;7.130;2023-06-10T01:07:56;19.00;99.90
15617;DHT22;7908;51.688;7.130;2023-06-10T01:10:32;18.90;99.90
15617;DHT22;7908;51.688;7.130;2023-06-10T01:13:03;18.80;99.90
15617;DHT22;7908;51.688;7.130;2023-06-10T01:15:34;18.70;99.90
15617;DHT22;7908;51.688;7.130;2023-06-10T01:18:05;18.70;99.90
15617;DHT22;7908;51.688;7.130;2023-06-10T01:20:38;18.60;99.90
15617;DHT22;7908;51.688;7.130;2023-06-10T01:23:09;18.50;99.90
15617;DHT22;7908;51.688;7.130;2023-06-10T01:25:40;18.50;99.90
15617;DHT22;7908;51.688;7.130;2023-06-10T01:28:14;18.40;99.90
15617;DHT22;7908;51.688;7.130;2023-06-10T01:30:50;18.40;99.90
15617;DHT22;7908;51.688;7.130;2023-06-10T01:33:25;18.30;99.90
15617;DHT22;7908;51.688;7.130;2023-06-10T01:35:56;18.30;99.90
15617;DHT22;7908;51.688;7.130;2023-06-10T01:38:32;18.20;99.90
15617;DHT22;7908;51.688;7.130;2023-06-10T01:41:01;18.20;99.90
15617;DHT22;7908;51.688;7.130;2023-06-10T01:43:33;18.10;99.90
15617;DHT22;7908;51.688;7.130;2023-06-10T01:46:03;18.00;99.90
15617;DHT22;7908;51.688;7.130;2023-06-10T01:48:31;18.00;99.90
15617;DHT22;7908;51.688;7.130;2023-06-10T01:51:00;17.90;99.90
15617;DHT22;7908;51.688;7.130;2023-06-10T01:53:30;17.90;99.90
15617;DHT22;7908;51.688;7.130;2023-06-10T01:55:59;17.90;99.90
15617;DHT22;7908;51.688;7.130;2023-06-10T01:58:28;17.90;99.90
15617;DHT22;7908;51.688;7.130;2023-06-10T02:00:57;17.90;99.90
15617;DHT22;7908;51.688;7.130;2023-06-10T02:03:26;17.90;99.90
15617;DHT22;7908;51.688;7.130;2023-06-10T02:05:55;17.90;99.90
15617;DHT22;7908;51.688;7.130;2023-06-10T02:08:24;17.90;99.90
15617;DHT22;7908;51.688;7.130;2023-06-10T02:10:56;17.80;99.90
15617;DHT22;7908;51.688;7.130;2023-06-10T02:13:25;17.80;99.90
15617;DHT22;7908;51.688;7.130;2023-06-10T02:15:53;17.70;99.90
15617;DHT22;7908;51.688;7.130;2023-06-10T02:18:22;17.60;99.90
15617;DHT22;7908;51.688;7.130;2023-06-10T02:20:51;17.50;99.90
15617;DHT22;7908;51.688;7.130;2023-06-10T02:23:20;17.30;99.90
15617;DHT22;7908;51.688;7.130;2023-06-10T02:25:48;17.50;99.90
15617;DHT22;7908;51.688;7.130;2023-06-10T02:28:18;17.50;99.90
15617;DHT22;7908;51.688;7.130;2023-06-10T02:30:47;17.50;99.90
15617;DHT22;7908;51.688;7.130;2023-06-10T02:33:16;17.50;99.90
15617;DHT22;7908;51.688;7.130;2023-06-10T02:35:45;17.40;99.90
15617;DHT22;7908;51.688;7.130;2023-06-10T02:38:14;17.40;99.90
15617;DHT22;7908;51.688;7.130;2023-06-10T02:40:43;17.30;99.90
15617;DHT22;7908;51.688;7.130;2023-06-10T02:43:12;17.30;99.90
15617;DHT22;7908;51.688;7.130;2023-06-10T02:45:42;17.20;99.90
15617;DHT22;7908;51.688;7.130;2023-06-10T02:48:11;17.10;99.90
15617;DHT22;7908;51.688;7.130;2023-06-10T02:50:40;17.10;99.90
15617;DHT22;7908;51.688;7.130;2023-06-10T02:53:09;17.00;99.90
15617;DHT22;7908;51.688;7.130;2023-06-10T02:55:38;17.00;99.90
15617;DHT22;7908;51.688;7.130;2023-06-10T02:58:08;16.90;99.90
15617;DHT22;7908;51.688;7.130;2023-06-10T03:00:36;16.90;99.90
15617;DHT22;7908;51.688;7.130;2023-06-10T03:03:09;16.90;99.90
15617;DHT22;7908;51.688;7.130;2023-06-10T03:05:39;16.90;99.90
15617;DHT22;7908;51.688;7.130;2023-06-10T03:08:08;16.80;99.90
15617;DHT22;7908;51.688;7.130;2023-06-10T03:10:36;16.80;99.90
15617;DHT22;7908;51.688;7.130;2023-06-10T03:13:05;16.80;99.90
15617;DHT22;7908;51.688;7.130;2023-06-10T03:15:34;16.80;99.90
15617;DHT22;7908;51.688;7.130;2023-06-10T03:18:03;16.80;99.90
15617;DHT22;7908;51.688;7.130;2023-06-10T03:20:34;16.80;99.90
15617;DHT22;7908;51.688;7.130;2023-06-10T03:23:05;16.80;99.90
15617;DHT22;7908;51.688;7.130;2023-06-10T03:25:34;16.80;99.90
15617;DHT22;7908;51.688;7.130;2023-06-10T03:28:03;16.80;99.90
15617;DHT22;7908;51.688;7.130;2023-06-10T03:30:32;16.80;99.90
15617;DHT22;7908;51.688;7.130;2023-06-10T03:33:01;16.80;99.90
15617;DHT22;7908;51.688;7.130;2023-06-10T03:35:30;16.90;99.90
15617;DHT22;7908;51.688;7.130;2023-06-10T03:38:00;16.90;99.90
15617;DHT22;7908;51.688;7.130;2023-06-10T03:40:29;16.90;99.90
15617;DHT22;7908;51.688;7.130;2023-06-10T03:42:59;16.90;99.90
15617;DHT22;7908;51.688;7.130;2023-06-10T03:45:28;17.00;99.90
15617;DHT22;7908;51.688;7.130;2023-06-10T03:47:56;17.00;99.90
15617;DHT22;7908;51.688;7.130;2023-06-10T03:50:25;17.00;99.90
15617;DHT22;7908;51.688;7.130;2023-06-10T03:52:54;17.00;99.90
15617;DHT22;7908;51.688;7.130;2023-06-10T03:55:24;17.00;99.90
15617;DHT22;7908;51.688;7.130;2023-06-10T03:57:53;17.00;99.90
15617;DHT22;7908;51.688;7.130;2023-06-10T04:00:22;17.00;99.90
15617;DHT22;7908;51.688;7.130;2023-06-10T04:02:51;17.00;99.90
15617;DHT22;7908;51.688;7.130;2023-06-10T04:05:20;17.00;99.90
15617;DHT22;7908;51.688;7.130;2023-06-10T04:07:50;17.10;99.90
15617;DHT22;7908;51.688;7.130;2023-06-10T04:10:18;17.10;99.90
15617;DHT22;7908;51.688;7.130;2023-06-10T04:12:49;17.10;99.90
15617;DHT22;7908;51.688;7.130;2023-06-10T04:15:17;17.10;99.90
15617;DHT22;7908;51.688;7.130;2023-06-10T04:17:46;17.10;99.90
15617;DHT22;7908;51.688;7.130;2023-06-10T04:20:16;17.10;99.90
15617;DHT22;7908;51.688;7.130;2023-06-10T04:22:45;17.10;99.90
15617;DHT22;7908;51.688;7.130;2023-06-10T04:25:13;17.20;99.90
15617;DHT22;7908;51.688;7.130;2023-06-10T04:27:43;17.20;99.90
15617;DHT22;7908;51.688;7.130;2023-06-10T04:30:14;17.20;99.90
15617;DHT22;7908;51.688;7.130;2023-06-10T04:32:43;17.30;99.90
15617;DHT22;7908;51.688;7.130;2023-06-10T04:35:12;17.40;99.90
15617;DHT22;7908;51.688;7.130;2023-06-10T04:37:41;17.40;99.90
15617;DHT22;7908;51.688;7.130;2023-06-10T04:40:10;17.60;99.90
15617;DHT22;7908;51.688;7.130;2023-06-10T04:42:39;17.80;99.90
15617;DHT22;7908;51.688;7.130;2023-06-10T04:45:08;17.90;99.90
15617;DHT22;7908;51.688;7.130;2023-06-10T04:47:39;18.10;99.90
15617;DHT22;7908;51.688;7.130;2023-06-10T04:50:08;18.30;99.90
15617;DHT22;7908;51.688;7.130;2023-06-10T04:52:37;18.50;99.90
15617;DHT22;7908;51.688;7.130;2023-06-10T04:55:08;18.60;99.90
15617;DHT22;7908;51.688;7.130;2023-06-10T04:57:38;18.70;99.90
15617;DHT22;7908;51.688;7.130;2023-06-10T05:00:07;19.00;99.90
15617;DHT22;7908;51.688;7.130;2023-06-10T05:02:37;19.10;99.90
15617;DHT22;7908;51.688;7.130;2023-06-10T05:05:07;19.20;99.90
15617;DHT22;7908;51.688;7.130;2023-06-10T05:07:36;19.40;99.90
15617;DHT22;7908;51.688;7.130;2023-06-10T05:10:06;19.50;99.90
15617;DHT22;7908;51.688;7.130;2023-06-10T05:12:35;19.60;99.90
15617;DHT22;7908;51.688;7.130;2023-06-10T05:15:06;19.70;99.90
15617;DHT22;7908;51.688;7.130;2023-06-10T05:17:36;19.80;99.90
15617;DHT22;7908;51.688;7.130;2023-06-10T05:20:07;19.90;99.90
15617;DHT22;7908;51.688;7.130;2023-06-10T05:22:36;20.00;99.90
15617;DHT22;7908;51.688;7.130;2023-06-10T05:25:06;20.00;99.90
15617;DHT22;7908;51.688;7.130;2023-06-10T05:27:35;20.10;99.90
15617;DHT22;7908;51.688;7.130;2023-06-10T05:30:06;20.10;99.90
15617;DHT22;7908;51.688;7.130;2023-06-10T05:32:36;20.20;99.90
15617;DHT22;7908;51.688;7.130;2023-06-10T05:35:05;20.30;99.90
15617;DHT22;7908;51.688;7.130;2023-06-10T05:37:35;20.30;99.90
15617;DHT22;7908;51.688;7.130;2023-06-10T05:40:06;20.30;99.90
15617;DHT22;7908;51.688;7.130;2023-06-10T05:42:35;20.40;99.90
15617;DHT22;7908;51.688;7.130;2023-06-10T05:45:05;20.40;99.90
15617;DHT22;7908;51.688;7.130;2023-06-10T05:47:34;20.50;99.90
15617;DHT22;7908;51.688;7.130;2023-06-10T05:50:04;20.50;99.90
15617;DHT22;7908;51.688;7.130;2023-06-10T05:52:36;20.60;99.90
15617;DHT22;7908;51.688;7.130;2023-06-10T05:55:08;20.60;99.90
15617;DHT22;7908;51.688;7.130;2023-06-10T05:57:37;20.70;99.90
15617;DHT22;7908;51.688;7.130;2023-06-10T06:00:07;20.70;99.90
15617;DHT22;7908;51.688;7.130;2023-06-10T06:02:36;20.80;99.90
15617;DHT22;7908;51.688;7.130;2023-06-10T06:05:06;20.80;99.90
15617;DHT22;7908;51.688;7.130;2023-06-10T06:07:37;20.80;99.90
15617;DHT22;7908;51.688;7.130;2023-06-10T06:10:06;20.90;99.90
15617;DHT22;7908;51.688;7.130;2023-06-10T06:12:35;21.00;99.90
15617;DHT22;7908;51.688;7.130;2023-06-10T06:15:05;21.00;99.90
15617;DHT22;7908;51.688;7.130;2023-06-10T06:17:35;21.10;99.90
15617;DHT22;7908;51.688;7.130;2023-06-10T06:20:06;21.20;99.90
15617;DHT22;7908;51.688;7.130;2023-06-10T06:22:36;21.30;99.90
15617;DHT22;7908;51.688;7.130;2023-06-10T06:25:06;21.40;99.90
15617;DHT22;7908;51.688;7.130;2023-06-10T06:27:35;21.50;99.90
15617;DHT22;7908;51.688;7.130;2023-06-10T06:30:05;21.60;99.90
15617;DHT22;7908;51.688;7.130;2023-06-10T06:32:34;21.80;99.90
15617;DHT22;7908;51.688;7.130;2023-06-10T06:35:04;21.80;99.90
15617;DHT22;7908;51.688;7.130;2023-06-10T06:37:37;21.90;99.90
15617;DHT22;7908;51.688;7.130;2023-06-10T06:40:06;22.00;99.90
15617;DHT22;7908;51.688;7.130;2023-06-10T06:42:35;22.10;99.90
15617;DHT22;7908;51.688;7.130;2023-06-10T06:45:05;22.20;99.90
15617;DHT22;7908;51.688;7.130;2023-06-10T06:47:35;22.20;99.90
15617;DHT22;7908;51.688;7.130;2023-06-10T06:50:04;22.40;99.90
15617;DHT22;7908;51.688;7.130;2023-06-10T06:52:33;22.50;99.90
15617;DHT22;7908;51.688;7.130;2023-06-10T06:55:04;22.60;99.90
15617;DHT22;7908;51.688;7.130;2023-06-10T06:57:34;22.70;99.90
15617;DHT22;7908;51.688;7.130;2023-06-10T07:00:05;22.80;99.90
15617;DHT22;7908;51.688;7.130;2023-06-10T07:02:35;22.80;99.90
15617;DHT22;7908;51.688;7.130;2023-06-10T07:05:05;22.80;99.90
15617;DHT22;7908;51.688;7.130;2023-06-10T07:07:35;22.90;99.90
15617;DHT22;7908;51.688;7.130;2023-06-10T07:10:06;23.00;99.90
15617;DHT22;7908;51.688;7.130;2023-06-10T07:12:36;23.20;99.90
15617;DHT22;7908;51.688;7.130;2023-06-10T07:15:05;23.40;99.90
15617;DHT22;7908;51.688;7.130;2023-06-10T07:17:35;23.40;99.90
15617;DHT22;7908;51.688;7.130;2023-06-10T07:20:05;23.40;99.90
15617;DHT22;7908;51.688;7.130;2023-06-10T07:22:34;23.50;99.90
15617;DHT22;7908;51.688;7.130;2023-06-10T07:25:05;23.50;99.90
15617;DHT22;7908;51.688;7.130;2023-06-10T07:27:35;23.50;99.90
15617;DHT22;7908;51.688;7.130;2023-06-10T07:30:08;23.70;99.90
15617;DHT22;7908;51.688;7.130;2023-06-10T07:32:38;23.70;99.90
15617;DHT22;7908;51.688;7.130;2023-06-10T07:35:09;23.80;99.90
15617;DHT22;7908;51.688;7.130;2023-06-10T07:37:39;23.90;99.90
15617;DHT22;7908;51.688;7.130;2023-06-10T07:40:10;24.00;99.90
15617;DHT22;7908;51.688;7.130;2023-06-10T07:42:40;24.00;99.90
15617;DHT22;7908;51.688;7.130;2023-06-10T07:45:09;24.00;99.90
15617;DHT22;7908;51.688;7.130;2023-06-10T07:47:38;24.10;99.90
15617;DHT22;7908;51.688;7.130;2023-06-10T07:50:09;24.10;99.90
15617;DHT22;7908;51.688;7.130;2023-06-10T07:52:37;24.20;99.90
15617;DHT22;7908;51.688;7.130;2023-06-10T07:55:09;24.20;99.90
15617;DHT22;7908;51.688;7.130;2023-06-10T07:57:38;24.30;99.90
15617;DHT22;7908;51.688;7.130;2023-06-10T08:00:09;24.30;99.90
15617;DHT22;7908;51.688;7.130;2023-06-10T08:02:38;24.40;99.90
15617;DHT22;7908;51.688;7.130;2023-06-10T08:05:08;24.50;99.90
15617;DHT22;7908;51.688;7.130;2023-06-10T08:07:38;24.50;99.90
15617;DHT22;7908;51.688;7.130;2023-06-10T08:10:10;24.50;99.90
15617;DHT22;7908;51.688;7.130;2023-06-10T08:12:39;24.60;99.90
15617;DHT22;7908;51.688;7.130;2023-06-10T08:15:08;24.70;99.90
15617;DHT22;7908;51.688;7.130;2023-06-10T08:17:38;25.00;99.90
15617;DHT22;7908;51.688;7.130;2023-06-10T08:20:08;25.10;99.90
15617;DHT22;7908;51.688;7.130;2023-06-10T08:22:38;25.10;99.90
15617;DHT22;7908;51.688;7.130;2023-06-10T08:25:10;25.10;99.90
15617;DHT22;7908;51.688;7.130;2023-06-10T08:27:40;25.20;99.90
15617;DHT22;7908;51.688;7.130;2023-06-10T08:30:09;25.30;99.90
15617;DHT22;7908;51.688;7.130;2023-06-10T08:32:40;25.30;99.90
15617;DHT22;7908;51.688;7.130;2023-06-10T08:35:09;25.50;99.90
15617;DHT22;7908;51.688;7.130;2023-06-10T08:37:38;25.60;99.90
15617;DHT22;7908;51.688;7.130;2023-06-10T08:40:10;25.60;99.90
15617;DHT22;7908;51.688;7.130;2023-06-10T08:42:45;25.70;99.90
15617;DHT22;7908;51.688;7.130;2023-06-10T08:45:17;25.80;99.90
15617;DHT22;7908;51.688;7.130;2023-06-10T08:47:49;25.80;99.90
15617;DHT22;7908;51.688;7.130;2023-06-10T08:50:21;25.90;99.90
15617;DHT22;7908;51.688;7.130;2023-06-10T08:52:54;26.00;99.90
15617;DHT22;7908;51.688;7.130;2023-06-10T08:55:32;26.00;99.90
15617;DHT22;7908;51.688;7.130;2023-06-10T08:58:01;25.90;99.90
15617;DHT22;7908;51.688;7.130;2023-06-10T09:00:31;26.00;99.90
15617;DHT22;7908;51.688;7.130;2023-06-10T09:03:00;26.10;99.90
15617;DHT22;7908;51.688;7.130;2023-06-10T09:05:33;26.10;99.90
15617;DHT22;7908;51.688;7.130;2023-06-10T09:08:05;26.10;99.90
15617;DHT22;7908;51.688;7.130;2023-06-10T09:10:38;26.00;99.90
15617;DHT22;7908;51.688;7.130;2023-06-10T09:13:09;25.90;99.90
15617;DHT22;7908;51.688;7.130;2023-06-10T09:15:40;25.90;99.90
15617;DHT22;7908;51.688;7.130;2023-06-10T09:18:10;26.00;99.90
15617;DHT22;7908;51.688;7.130;2023-06-10T09:20:39;26.20;99.90
15617;DHT22;7908;51.688;7.130;2023-06-10T09:23:09;26.50;99.90
15617;DHT22;7908;51.688;7.130;2023-06-10T09:25:40;26.60;99.90
15617;DHT22;7908;51.688;7.130;2023-06-10T09:28:13;26.50;99.90
15617;DHT22;7908;51.688;7.130;2023-06-10T09:30:43;26.40;99.90
15617;DHT22;7908;51.688;7.130;2023-06-10T09:33:14;26.40;99.90
15617;DHT22;7908;51.688;7.130;2023-06-10T09:35:48;26.50;99.90
15617;DHT22;7908;51.688;7.130;2023-06-10T09:38:21;26.50;99.90
15617;DHT22;7908;51.688;7.130;2023-06-10T09:40:52;26.40;99.90
15617;DHT22;7908;51.688;7.130;2023-06-10T09:43:39;26.50;99.90
15617;DHT22;7908;51.688;7.130;2023-06-10T09:46:16;26.60;99.90
15617;DHT22;7908;51.688;7.130;2023-06-10T09:48:47;26.80;99.90
15617;DHT22;7908;51.688;7.130;2023-06-10T09:51:16;26.90;99.90
15617;DHT22;7908;51.688;7.130;2023-06-10T09:53:48;27.10;99.90
15617;DHT22;7908;51.688;7.130;2023-06-10T09:56:20;27.10;99.90
15617;DHT22;7908;51.688;7.130;2023-06-10T09:58:53;27.00;99.90
15617;DHT22;7908;51.688;7.130;2023-06-10T10:01:22;26.90;99.80
15617;DHT22;7908;51.688;7.130;2023-06-10T10:03:52;27.00;99.90
15617;DHT22;7908;51.688;7.130;2023-06-10T10:06:22;27.10;99.80
15617;DHT22;7908;51.688;7.130;2023-06-10T10:08:53;27.20;99.20
15617;DHT22;7908;51.688;7.130;2023-06-10T10:11:24;27.20;99.50
15617;DHT22;7908;51.688;7.130;2023-06-10T10:13:54;27.10;99.00
15617;DHT22;7908;51.688;7.130;2023-06-10T10:16:30;27.20;99.10
15617;DHT22;7908;51.688;7.130;2023-06-10T10:19:07;27.30;98.60
15617;DHT22;7908;51.688;7.130;2023-06-10T10:21:40;27.30;98.30
15617;DHT22;7908;51.688;7.130;2023-06-10T10:24:16;27.60;98.00
15617;DHT22;7908;51.688;7.130;2023-06-10T10:26:49;27.50;98.00
15617;DHT22;7908;51.688;7.130;2023-06-10T10:29:24;27.60;97.60
15617;DHT22;7908;51.688;7.130;2023-06-10T10:31:58;27.50;97.30
15617;DHT22;7908;51.688;7.130;2023-06-10T10:34:35;27.50;96.90
15617;DHT22;7908;51.688;7.130;2023-06-10T10:37:04;27.40;97.30
15617;DHT22;7908;51.688;7.130;2023-06-10T10:39:34;27.50;96.40
15617;DHT22;7908;51.688;7.130;2023-06-10T10:42:07;27.60;96.50
15617;DHT22;7908;51.688;7.130;2023-06-10T10:44:39;27.60;95.70
15617;DHT22;7908;51.688;7.130;2023-06-10T10:47:09;27.60;95.60
15617;DHT22;7908;51.688;7.130;2023-06-10T10:49:43;27.60;95.90
15617;DHT22;7908;51.688;7.130;2023-06-10T10:52:14;27.70;94.70
15617;DHT22;7908;51.688;7.130;2023-06-10T10:54:46;27.70;95.00
15617;DHT22;7908;51.688;7.130;2023-06-10T10:57:18;27.90;94.20
15617;DHT22;7908;51.688;7.130;2023-06-10T10:59:55;28.00;94.10
15617;DHT22;7908;51.688;7.130;2023-06-10T11:02:41;28.10;93.70
15617;DHT22;7908;51.688;7.130;2023-06-10T11:05:13;28.20;93.50
15617;DHT22;7908;51.688;7.130;2023-06-10T11:07:53;28.10;93.40
15617;DHT22;7908;51.688;7.130;2023-06-10T11:10:29;28.10;93.50
15617;DHT22;7908;51.688;7.130;2023-06-10T11:13:02;28.10;93.50
15617;DHT22;7908;51.688;7.130;2023-06-10T11:15:39;28.10;93.70
15617;DHT22;7908;51.688;7.130;2023-06-10T11:18:13;28.20;94.10
15617;DHT22;7908;51.688;7.130;2023-06-10T11:20:45;28.20;93.40
15617;DHT22;7908;51.688;7.130;2023-06-10T11:23:33;28.20;93.40
15617;DHT22;7908;51.688;7.130;2023-06-10T11:26:19;28.20;92.90
15617;DHT22;7908;51.688;7.130;2023-06-10T11:29:09;28.20;93.20
15617;DHT22;7908;51.688;7.130;2023-06-10T11:31:44;28.10;92.50
15617;DHT22;7908;51.688;7.130;2023-06-10T11:34:13;28.10;91.70
15617;DHT22;7908;51.688;7.130;2023-06-10T11:36:44;28.10;92.10
15617;DHT22;7908;51.688;7.130;2023-06-10T11:39:13;28.00;92.00
15617;DHT22;7908;51.688;7.130;2023-06-10T11:41:42;28.00;92.00
15617;DHT22;7908;51.688;7.130;2023-06-10T11:44:14;28.00;91.50
15617;DHT22;7908;51.688;7.130;2023-06-10T11:46:48;28.10;91.50
15617;DHT22;7908;51.688;7.130;2023-06-10T11:49:20;28.20;91.50
15617;DHT22;7908;51.688;7.130;2023-06-10T11:51:50;28.20;91.20
15617;DHT22;7908;51.688;7.130;2023-06-10T11:54:19;28.30;91.50
15617;DHT22;7908;51.688;7.130;2023-06-10T11:56:49;28.50;91.20
15617;DHT22;7908;51.688;7.130;2023-06-10T11:59:27;28.60;91.20
15617;DHT22;7908;51.688;7.130;2023-06-10T12:01:56;28.60;90.70
15617;DHT22;7908;51.688;7.130;2023-06-10T12:04:25;28.70;90.20
15617;DHT22;7908;51.688;7.130;2023-06-10T12:06:55;28.70;91.00
15617;DHT22;7908;51.688;7.130;2023-06-10T12:09:25;28.70;88.50
15617;DHT22;7908;51.688;7.130;2023-06-10T12:11:57;28.60;87.80
15617;DHT22;7908;51.688;7.130;2023-06-10T12:14:57;28.50;87.60
15617;DHT22;7908;51.688;7.130;2023-06-10T12:17:36;28.40;86.50
15617;DHT22;7908;51.688;7.130;2023-06-10T12:20:07;28.30;87.80
15617;DHT22;7908;51.688;7.130;2023-06-10T12:22:38;28.30;89.30
15617;DHT22;7908;51.688;7.130;2023-06-10T12:25:08;28.40;88.30
15617;DHT22;7908;51.688;7.130;2023-06-10T12:27:39;28.50;90.00
15617;DHT22;7908;51.688;7.130;2023-06-10T12:30:18;28.60;86.70
15617;DHT22;7908;51.688;7.130;2023-06-10T12:32:47;28.60;86.00
15617;DHT22;7908;51.688;7.130;2023-06-10T12:35:18;28.60;85.70
15617;DHT22;7908;51.688;7.130;2023-06-10T12:37:55;28.60;84.70
15617;DHT22;7908;51.688;7.130;2023-06-10T12:40:29;28.80;85.40
15617;DHT22;7908;51.688;7.130;2023-06-10T12:42:59;28.90;83.80
15617;DHT22;7908;51.688;7.130;2023-06-10T12:45:31;28.80;83.70
15617;DHT22;7908;51.688;7.130;2023-06-10T12:48:05;28.90;85.10
15617;DHT22;7908;51.688;7.130;2023-06-10T12:50:38;28.90;82.40
15617;DHT22;7908;51.688;7.130;2023-06-10T12:53:08;28.90;82.60
15617;DHT22;7908;51.688;7.130;2023-06-10T12:55:39;28.90;82.40
15617;DHT22;7908;51.688;7.130;2023-06-10T12:58:08;29.00;82.10
15617;DHT22;7908;51.688;7.130;2023-06-10T13:00:39;29.00;82.30
15617;DHT22;7908;51.688;7.130;2023-06-10T13:03:29;28.90;81.50
15617;DHT22;7908;51.688;7.130;2023-06-10T13:06:28;28.80;81.50
15617;DHT22;7908;51.688;7.130;2023-06-10T13:35:48;29.20;81.70
15617;DHT22;7908;51.688;7.130;2023-06-10T13:38:18;29.20;81.80
15617;DHT22;7908;51.688;7.130;2023-06-10T13:40:49;29.20;81.70
15617;DHT22;7908;51.688;7.130;2023-06-10T13:43:19;29.00;82.50
15617;DHT22;7908;51.688;7.130;2023-06-10T13:45:55;28.90;80.90
15617;DHT22;7908;51.688;7.130;2023-06-10T13:48:25;29.10;80.80
15617;DHT22;7908;51.688;7.130;2023-06-10T13:50:58;29.00;81.10
15617;DHT22;7908;51.688;7.130;2023-06-10T13:53:30;29.10;82.10
15617;DHT22;7908;51.688;7.130;2023-06-10T13:56:25;28.70;82.20
15617;DHT22;7908;51.688;7.130;2023-06-10T13:59:57;29.20;81.60
15617;DHT22;7908;51.688;7.130;2023-06-10T14:03:09;29.20;82.10
15617;DHT22;7908;51.688;7.130;2023-06-10T14:09:09;29.20;81.70
15617;DHT22;7908;51.688;7.130;2023-06-10T14:12:12;28.90;81.40
15617;DHT22;7908;51.688;7.130;2023-06-10T14:15:11;29.50;82.30
15617;DHT22;7908;51.688;7.130;2023-06-10T14:21:44;29.40;80.80
15617;DHT22;7908;51.688;7.130;2023-06-10T14:28:26;29.20;80.50
15617;DHT22;7908;51.688;7.130;2023-06-10T14:30:56;29.30;80.70
15617;DHT22;7908;51.688;7.130;2023-06-10T14:33:25;29.40;80.30
15617;DHT22;7908;51.688;7.130;2023-06-10T14:35:55;29.20;79.30
15617;DHT22;7908;51.688;7.130;2023-06-10T14:38:24;29.20;79.70
15617;DHT22;7908;51.688;7.130;2023-06-10T14:40:53;29.20;78.90
15617;DHT22;7908;51.688;7.130;2023-06-10T14:43:23;29.30;79.90
15617;DHT22;7908;51.688;7.130;2023-06-10T14:45:54;29.30;80.20
15617;DHT22;7908;51.688;7.130;2023-06-10T14:48:24;29.40;80.50
15617;DHT22;7908;51.688;7.130;2023-06-10T14:50:54;29.50;79.80
15617;DHT22;7908;51.688;7.130;2023-06-10T14:53:23;29.50;79.20
15617;DHT22;7908;51.688;7.130;2023-06-10T14:55:53;29.50;79.50
15617;DHT22;7908;51.688;7.130;2023-06-10T14:58:22;29.60;79.60
15617;DHT22;7908;51.688;7.130;2023-06-10T15:00:53;29.60;81.30
15617;DHT22;7908;51.688;7.130;2023-06-10T15:03:22;29.80;80.80
15617;DHT22;7908;51.688;7.130;2023-06-10T15:05:51;29.60;78.80
15617;DHT22;7908;51.688;7.130;2023-06-10T15:08:21;29.60;78.30
15617;DHT22;7908;51.688;7.130;2023-06-10T15:10:51;29.50;79.00
15617;DHT22;7908;51.688;7.130;2023-06-10T15:13:20;29.50;79.00
15617;DHT22;7908;51.688;7.130;2023-06-10T15:15:49;29.50;79.00
15617;DHT22;7908;51.688;7.130;2023-06-10T15:18:20;29.40;79.60
15617;DHT22;7908;51.688;7.130;2023-06-10T15:20:49;29.40;79.30
15617;DHT22;7908;51.688;7.130;2023-06-10T15:23:18;29.50;80.00
15617;DHT22;7908;51.688;7.130;2023-06-10T15:25:48;29.50;80.10
15617;DHT22;7908;51.688;7.130;2023-06-10T15:28:18;29.50;79.40
15617;DHT22;7908;51.688;7.130;2023-06-10T15:30:47;29.50;78.50
15617;DHT22;7908;51.688;7.130;2023-06-10T15:33:16;29.40;79.40
15617;DHT22;7908;51.688;7.130;2023-06-10T15:35:47;29.50;79.30
15617;DHT22;7908;51.688;7.130;2023-06-10T15:38:18;29.50;79.70
15617;DHT22;7908;51.688;7.130;2023-06-10T15:40:47;29.50;78.20
15617;DHT22;7908;51.688;7.130;2023-06-10T15:43:16;29.50;78.60
15617;DHT22;7908;51.688;7.130;2023-06-10T15:45:45;29.40;78.50
15617;DHT22;7908;51.688;7.130;2023-06-10T15:48:14;29.40;79.00
15617;DHT22;7908;51.688;7.130;2023-06-10T15:50:47;29.40;79.30
15617;DHT22;7908;51.688;7.130;2023-06-10T15:53:17;29.50;79.30
15617;DHT22;7908;51.688;7.130;2023-06-10T15:55:46;29.50;79.50
15617;DHT22;7908;51.688;7.130;2023-06-10T15:58:15;29.40;78.50
15617;DHT22;7908;51.688;7.130;2023-06-10T16:00:44;29.40;79.30
15617;DHT22;7908;51.688;7.130;2023-06-10T16:03:14;29.40;79.40
15617;DHT22;7908;51.688;7.130;2023-06-10T16:05:43;29.40;79.60
15617;DHT22;7908;51.688;7.130;2023-06-10T16:08:14;29.40;78.70
15617;DHT22;7908;51.688;7.130;2023-06-10T16:10:43;29.30;79.00
15617;DHT22;7908;51.688;7.130;2023-06-10T16:13:13;29.30;79.10
15617;DHT22;7908;51.688;7.130;2023-06-10T16:15:42;29.40;79.20
15617;DHT22;7908;51.688;7.130;2023-06-10T16:18:11;29.40;79.10
15617;DHT22;7908;51.688;7.130;2023-06-10T16:20:41;29.20;78.50
15617;DHT22;7908;51.688;7.130;2023-06-10T16:23:10;29.10;78.10
15617;DHT22;7908;51.688;7.130;2023-06-10T16:25:40;29.10;79.30
15617;DHT22;7908;51.688;7.130;2023-06-10T16:28:13;29.10;80.30
15617;DHT22;7908;51.688;7.130;2023-06-10T16:30:42;29.20;79.50
15617;DHT22;7908;51.688;7.130;2023-06-10T16:33:11;29.10;79.70
15617;DHT22;7908;51.688;7.130;2023-06-10T16:35:40;29.00;78.80
15617;DHT22;7908;51.688;7.130;2023-06-10T16:38:10;29.00;79.60
15617;DHT22;7908;51.688;7.130;2023-06-10T16:40:42;29.00;80.20
15617;DHT22;7908;51.688;7.130;2023-06-10T16:43:12;29.00;79.40
15617;DHT22;7908;51.688;7.130;2023-06-10T16:45:41;28.90;80.40
15617;DHT22;7908;51.688;7.130;2023-06-10T16:48:10;28.90;80.00